Latest Weather Observations for Kalumburu

IDD60801

Issued at 11:01 am CST Thursday 21 November 2019 (issued every 10 minutes, with the page automatically refreshed every 10 minutes)

About weather observations | Map of weather stations | Latest weather observations for NT | Other Formats
Station Details ID: 001019 Name: KALUMBURU Lat: -14.30 Lon: 126.65 Height: 23.0 m
Data from the previous 72 hours. | See also: Recent months at Kalumburu
Date/Time
CST
Temp
°C
App
Temp
°C
Dew
Point
°C
Rel
Hum
%
Delta-T
°C
Wind Press
QNH
hPa
Press
MSL
hPa
Rain since
9am
mm
Dir  Spd
km/h
Gust
km/h
Spd
kts
Gust
kts
21/11:00am 35.6 35.5 17.8 35 11.6 N 15 22 8 12 1010.0 1009.8 0.0
21/10:30am 36.2 35.8 15.3 28 13.1 NNE 11 26 6 14 1010.1 1009.9 0.0
21/10:00am 35.1 36.7 16.9 34 11.6 S 4 11 2 6 1010.5 1010.3 0.0
21/09:30am 33.1 35.4 18.5 42 9.5 SE 4 9 2 5 1010.6 1010.4 0.0
21/09:00am 31.9 34.1 19.2 47 8.3 SSE 6 9 3 5 1010.5 1010.3 0.0
21/08:30am 30.8 34.0 20.4 54 6.9 SSE 4 7 2 4 1010.3 1010.1 0.0
21/08:00am 29.2 33.9 21.9 64 4.9 CALM 0 0 0 0 1010.0 1009.8 0.0
21/07:30am 26.6 31.8 22.9 80 2.5 CALM 0 0 0 0 1009.5 1009.3 0.0
21/07:00am 24.4 28.8 21.3 83 2.0 CALM 0 0 0 0 1009.3 1009.1 0.0
21/06:30am 24.2 28.6 21.3 84 1.9 CALM 0 0 0 0 1009.2 1009.0 0.0
21/06:00am 24.4 28.7 21.1 82 2.2 CALM 0 0 0 0 1008.8 1008.6 0.0
21/05:30am 24.8 29.0 20.9 79 2.6 CALM 0 0 0 0 1008.5 1008.3 0.0
21/05:00am 25.2 29.7 21.5 80 2.5 CALM 0 0 0 0 1008.2 1008.0 0.0
21/04:30am 25.5 29.9 21.4 78 2.7 CALM 0 4 0 2 1008.1 1007.9 0.0
21/04:00am 25.7 30.6 22.4 82 2.2 CALM 0 0 0 0 1008.1 1007.9 0.0
21/03:30am 26.3 30.7 22.8 81 2.4 SSW 4 6 2 3 1008.1 1007.9 0.0
21/03:00am 26.9 31.5 22.5 77 3.0 SSW 2 7 1 4 1008.2 1008.0 0.0
21/02:30am 27.2 31.6 23.4 80 2.6 SSW 6 9 3 5 1008.4 1008.2 0.0
21/02:00am 26.5 31.4 22.3 78 2.8 CALM 0 0 0 0 1008.7 1008.5 0.0
21/01:30am 27.3 32.3 22.5 75 3.3 CALM 0 0 0 0 1008.8 1008.6 0.0
21/01:00am 28.0 32.7 22.7 73 3.6 W 2 7 1 4 1009.1 1008.9 0.0
21/12:30am 28.1 31.8 22.3 70 3.9 WNW 6 9 3 5 1009.3 1009.1 0.0
21/12:00am 28.5 32.2 22.5 70 4.1 NW 7 13 4 7 1009.5 1009.3 0.0
 
Date/Time
CST
Temp
°C
App
Temp
°C
Dew
Point
°C
Rel
Hum
%
Delta-T
°C
Wind Press
QNH
hPa
Press
MSL
hPa
Rain since
9am
mm
Dir  Spd
km/h
Gust
km/h
Spd
kts
Gust
kts
20/11:30pm 28.5 32.0 21.8 67 4.5 NW 6 11 3 6 1009.8 1009.6 0.0
20/11:00pm 29.1 32.6 22.1 66 4.7 NW 7 9 4 5 1009.9 1009.7 0.0
20/10:30pm 29.4 32.9 22.1 65 4.9 WNW 7 11 4 6 1009.9 1009.7 0.0
20/10:00pm 29.8 32.8 22.0 63 5.3 WNW 9 17 5 9 1009.7 1009.5 0.0
20/09:30pm 30.1 32.5 21.5 60 5.8 WNW 11 19 6 10 1009.6 1009.4 0.0
20/09:00pm 30.4 33.1 20.6 55 6.5 WNW 7 15 4 8 1009.2 1009.0 0.0
20/08:30pm 31.1 31.8 18.8 48 8.0 NW 13 22 7 12 1008.9 1008.7 0.0
20/08:00pm 31.7 30.7 15.6 37 10.0 WNW 15 22 8 12 1008.3 1008.1 0.0
20/07:30pm 32.9 30.7 12.0 28 12.4 NW 15 24 8 13 1008.0 1007.8 0.0
20/07:00pm 34.0 31.3 11.8 26 13.1 NW 17 26 9 14 1007.5 1007.3 0.0
20/06:30pm 35.4 32.1 9.7 21 14.9 WNW 17 28 9 15 1006.9 1006.7 0.0
20/06:00pm 36.6 33.0 8.4 18 16.0 WNW 17 30 9 16 1006.5 1006.3 0.0
20/05:30pm 37.5 34.4 11.5 21 15.6 NW 19 28 10 15 1006.1 1005.9 0.0
20/05:00pm 38.3 34.5 9.8 18 16.7 NW 20 30 11 16 1006.1 1005.9 0.0
20/04:30pm 38.7 35.0 9.3 17 17.1 NW 19 26 10 14 1006.2 1006.0 0.0
20/04:00pm 39.6 36.4 10.0 17 17.5 NW 17 28 9 15 1006.3 1006.1 0.0
20/03:30pm 39.2 37.2 17.3 27 14.3 N 24 39 13 21 1006.3 1006.1 0.0
20/03:00pm 38.8 36.8 17.5 28 13.9 N 24 37 13 20 1006.6 1006.4 0.0
20/02:30pm 37.7 35.8 17.7 31 13.1 N 24 37 13 20 1007.0 1006.8 0.0
20/02:00pm 37.7 36.6 18.7 33 12.6 N 22 32 12 17 1007.4 1007.2 0.0
20/01:30pm 38.7 37.7 18.0 29 13.6 NNW 20 30 11 16 1008.0 1007.8 0.0
20/01:00pm 37.8 37.5 19.2 33 12.4 NNW 19 28 10 15 1008.6 1008.4 0.0
20/12:30pm 38.6 38.2 18.9 31 13.1 NNW 19 30 10 16 1009.1 1008.9 0.0
20/12:00pm 38.0 36.9 15.2 26 14.4 NNW 15 24 8 13 1009.5 1009.3 0.0
20/11:30am 37.4 36.8 14.7 26 14.2 W 11 22 6 12 1010.0 1009.8 0.0
20/11:00am 36.5 36.4 15.0 27 13.5 WNW 9 15 5 8 1010.4 1010.2 0.0
20/10:30am 35.1 36.1 16.9 34 11.7 W 7 17 4 9 1010.8 1010.6 0.0
20/10:00am 34.3 36.3 19.1 40 10.0 NW 7 11 4 6 1011.0 1010.8 0.0
20/09:30am 32.6 35.1 19.1 44 8.8 ESE 4 9 2 5 1010.9 1010.7 0.0
20/09:00am 31.2 34.9 21.4 56 6.6 S 4 7 2 4 1010.7 1010.5 0.0
20/08:30am 30.5 34.3 22.7 63 5.3 S 7 11 4 6 1010.4 1010.2 0.0
20/08:00am 29.1 34.3 23.5 72 3.9 SSE 2 7 1 4 1010.0 1009.8 0.0
20/07:30am 26.8 32.7 24.1 85 1.9 CALM 0 0 0 0 1009.6 1009.4 0.0
20/07:00am 24.7 29.6 22.4 87 1.5 CALM 0 0 0 0 1009.3 1009.1 0.0
20/06:30am 24.3 28.9 21.8 86 1.7 CALM 0 0 0 0 1008.9 1008.7 0.0
20/06:00am 24.6 29.3 21.9 85 1.8 CALM 0 6 0 3 1008.7 1008.5 0.0
20/05:30am 25.1 30.0 22.4 85 1.8 CALM 0 0 0 0 1008.4 1008.2 0.0
20/05:00am 25.3 30.1 22.2 83 2.1 CALM 0 0 0 0 1008.2 1008.0 0.0
20/04:30am 25.8 30.6 22.9 84 2.0 SSW 2 6 1 3 1007.9 1007.7 0.0
20/04:00am 25.7 30.8 22.6 83 2.1 CALM 0 0 0 0 1008.0 1007.8 0.0
20/03:30am 25.9 30.7 22.2 80 2.5 CALM 0 0 0 0 1008.2 1008.0 0.0
20/03:00am 26.7 31.1 22.1 76 3.1 NW 2 6 1 3 1008.3 1008.1 0.0
20/02:30am 27.4 32.1 22.6 75 3.3 WNW 2 7 1 4 1008.4 1008.2 0.0
20/02:00am 28.2 33.0 22.9 73 3.6 WNW 2 7 1 4 1008.7 1008.5 0.0
20/01:30am 28.2 33.4 22.9 73 3.6 CALM 0 0 0 0 1008.9 1008.7 0.0
20/01:00am 28.7 32.9 23.4 73 3.6 NW 7 11 4 6 1009.2 1009.0 0.0
20/12:30am 29.1 33.2 23.3 71 4.0 NW 7 9 4 5 1009.6 1009.4 0.0
20/12:00am 29.7 33.6 22.9 67 4.7 WNW 7 15 4 8 1010.0 1009.8 0.0
 
Date/Time
CST
Temp
°C
App
Temp
°C
Dew
Point
°C
Rel
Hum
%
Delta-T
°C
Wind Press
QNH
hPa
Press
MSL
hPa
Rain since
9am
mm
Dir  Spd
km/h
Gust
km/h
Spd
kts
Gust
kts
19/11:30pm 30.0 33.0 21.9 62 5.5 NW 9 13 5 7 1010.2 1010.0 0.0
19/11:00pm 30.4 34.0 22.3 62 5.5 WNW 7 11 4 6 1010.2 1010.0 0.0
19/10:30pm 31.1 33.8 21.3 56 6.6 NW 9 15 5 8 1010.0 1009.8 0.0
19/10:00pm 31.6 32.7 18.9 47 8.3 NW 11 15 6 8 1009.9 1009.7 0.0
19/09:30pm 32.2 31.7 13.9 33 11.1 NNW 9 13 5 7 1009.5 1009.3 0.0
19/09:00pm 32.8 33.1 17.0 38 10.1 NW 11 15 6 8 1009.3 1009.1 0.0
19/08:30pm 33.0 33.4 16.4 37 10.5 WNW 9 17 5 9 1009.4 1009.2 0.0
19/08:00pm 33.5 33.2 15.5 34 11.2 WNW 11 17 6 9 1009.2 1009.0 0.0
19/07:30pm 33.8 32.9 14.8 32 11.8 WNW 13 20 7 11 1008.7 1008.5 0.0
19/07:00pm 34.3 33.9 15.2 31 11.9 WNW 11 20 6 11 1008.0 1007.8 0.0
19/06:30pm 33.8 34.1 19.5 43 9.5 NNW 17 28 9 15 1007.6 1007.4 0.0
19/06:00pm 34.7 32.9 16.1 33 11.8 N 20 32 11 17 1007.6 1007.4 0.0
19/05:30pm 34.9 32.6 16.7 34 11.6 N 24 35 13 19 1007.4 1007.2 0.0
19/05:00pm 36.7 34.3 16.3 30 13.0 N 24 35 13 19 1006.9 1006.7 0.0
19/04:30pm 37.0 34.0 13.7 25 14.4 N 22 33 12 18 1006.6 1006.4 0.0
19/04:00pm 37.0 35.0 15.5 28 13.6 NNW 20 32 11 17 1006.6 1006.4 0.0
19/03:30pm 37.7 36.1 16.1 28 13.8 NNW 19 30 10 16 1007.0 1006.8 0.0
19/03:00pm 38.1 35.0 13.3 22 15.2 N 22 32 12 17 1007.4 1007.2 0.0
19/02:30pm 38.4 35.5 12.2 21 15.9 N 19 28 10 15 1007.7 1007.5 0.0
19/02:00pm 38.5 36.0 12.3 21 15.9 N 17 28 9 15 1008.2 1008.0 0.0
19/01:30pm 37.7 36.2 13.0 23 15.1 NNW 13 22 7 12 1008.9 1008.7 0.0
19/01:00pm 38.1 35.9 13.3 22 15.2 NNW 17 32 9 17 1009.4 1009.2 0.0
19/12:30pm 37.6 36.0 12.9 23 15.1 NW 13 22 7 12 1009.9 1009.7 0.0
19/12:00pm 38.1 36.1 12.7 22 15.5 NNW 15 24 8 13 1010.4 1010.2 0.0
19/11:30am 35.9 36.2 18.0 34 11.7 NNW 13 24 7 13 1010.9 1010.7 0.0
19/11:00am 35.9 36.5 17.6 34 11.9 WNW 11 19 6 10 1011.2 1011.0 0.0
19/10:30am 35.5 37.6 19.4 38 10.7 NNE 7 13 4 7 1011.5 1011.3 0.0
19/10:00am 33.5 35.8 19.9 44 9.0 WNW 7 11 4 6 1011.8 1011.6 0.0
19/09:30am 32.5 35.4 21.0 50 7.7 WSW 7 11 4 6 1011.6 1011.4 0.0
19/09:00am 31.3 35.2 22.9 61 5.8 W 7 11 4 6 1011.5 1011.3 0.0
19/08:30am 29.9 34.0 23.3 67 4.5 NW 7 11 4 6 1011.2 1011.0 0.0
19/08:00am 29.1 33.7 23.8 73 3.7 NW 6 9 3 5 1011.0 1010.8 0.0
19/07:30am 27.6 33.7 24.4 83 2.2 CALM 0 0 0 0 1010.6 1010.4 0.0
19/07:00am 26.2 31.8 23.5 85 1.8 CALM 0 0 0 0 1010.4 1010.2 0.0
19/06:30am 25.6 30.7 22.7 84 2.0 CALM 0 0 0 0 1010.0 1009.8 0.0
19/06:00am 25.7 30.9 22.8 84 2.0 CALM 0 0 0 0 1009.5 1009.3 0.0
19/05:30am 25.6 30.6 22.5 83 2.1 CALM 0 0 0 0 1009.1 1008.9 0.0
19/05:00am 25.9 31.0 22.6 82 2.2 CALM 0 0 0 0 1008.9 1008.7 0.0
19/04:30am 26.1 31.2 22.6 81 2.4 CALM 0 0 0 0 1008.7 1008.5 0.0
19/04:00am 26.7 32.0 23.0 80 2.5 CALM 0 6 0 3 1008.5 1008.3 0.0
19/03:30am 27.1 32.4 23.1 79 2.7 CALM 0 7 0 4 1008.6 1008.4 0.0
19/03:00am 27.4 32.5 22.6 75 3.3 CALM 0 7 0 4 1008.5 1008.3 0.0
19/02:30am 27.8 31.9 23.0 75 3.3 WNW 6 9 3 5 1008.6 1008.4 0.0
19/02:00am 28.2 32.9 23.3 75 3.4 WNW 4 9 2 5 1008.8 1008.6 0.0
19/01:30am 28.0 32.6 23.2 75 3.3 WNW 4 9 2 5 1009.1 1008.9 0.0
19/01:00am 28.2 32.2 23.1 74 3.5 WNW 7 11 4 6 1009.4 1009.2 0.0
19/12:30am 28.3 32.2 23.0 73 3.6 WNW 7 13 4 7 1009.9 1009.7 0.0
19/12:00am 28.4 32.3 22.9 72 3.7 WNW 7 11 4 6 1010.4 1010.2 0.0
 
Date/Time
CST
Temp
°C
App
Temp
°C
Dew
Point
°C
Rel
Hum
%
Delta-T
°C
Wind Press
QNH
hPa
Press
MSL
hPa
Rain since
9am
mm
Dir  Spd
km/h
Gust
km/h
Spd
kts
Gust
kts
18/11:30pm 28.4 32.5 22.9 72 3.8 NW 6 11 3 6 1010.9 1010.7 0.0
18/11:00pm 28.7 32.6 22.9 71 4.0 WNW 7 11 4 6 1011.0 1010.8 0.0
18/10:30pm 28.4 32.5 22.9 72 3.8 NNW 6 13 3 7 1010.7 1010.5 0.0
18/10:00pm 28.3 32.3 22.1 69 4.2 NNW 4 7 2 4 1010.7 1010.5 0.0
18/09:30pm 28.5 32.2 22.3 69 4.2 NNW 6 7 3 4 1010.4 1010.2 0.0
18/09:00pm 29.2 32.3 22.2 66 4.7 NNW 9 13 5 7 1010.4 1010.2 0.0
18/08:30pm 29.8 32.9 22.8 66 4.8 N 11 15 6 8 1010.1 1009.9 0.0
18/08:00pm 30.2 32.8 22.6 63 5.2 N 13 19 7 10 1009.8 1009.6 0.0
18/07:30pm 30.5 32.5 22.9 64 5.2 N 17 22 9 12 1009.2 1009.0 0.0
18/07:00pm 31.1 32.8 22.4 60 5.9 N 17 26 9 14 1008.8 1008.6 0.0
18/06:30pm 31.6 32.9 22.6 59 6.2 N 20 35 11 19 1008.3 1008.1 0.0
18/06:00pm 32.4 33.1 21.6 53 7.3 N 20 30 11 16 1007.9 1007.7 0.0
18/05:30pm 34.9 31.7 13.1 27 13.2 N 22 32 12 17 1007.5 1007.3 0.0
18/05:00pm 35.7 32.9 14.4 28 13.2 N 22 30 12 16 1007.4 1007.2 0.0
18/04:30pm 38.4 35.5 12.9 22 15.6 N 20 32 11 17 1007.3 1007.1 0.0
18/04:00pm 38.4 35.7 12.9 22 15.6 NNW 19 28 10 15 1007.5 1007.3 0.0
18/03:30pm 37.9 33.6 7.7 16 17.1 NNW 20 28 11 15 1008.1 1007.9 0.0
18/03:00pm 37.2 35.3 15.1 27 13.9 NNW 19 26 10 14 1008.5 1008.3 0.0
18/02:30pm 35.5 35.3 20.6 41 10.0 NNW 22 30 12 16 1009.2 1009.0 0.0
18/02:00pm 35.5 35.9 21.0 42 9.8 NNW 20 30 11 16 1009.7 1009.5 0.0
18/01:30pm 35.5 35.9 21.0 42 9.8 N 20 30 11 16 1010.1 1009.9 0.0
18/01:00pm 35.0 35.2 21.3 45 9.3 NNW 22 32 12 17 1010.7 1010.5 0.0

Other formats

Comma delimited format used in spreadsheet applications
http://www.bom.gov.au/fwo/IDD60801/IDD60801.94100.axf

JavaScript Object Notation format (JSON) in row-major order
http://www.bom.gov.au/fwo/IDD60801/IDD60801.94100.json

Data quality

Most of these data are generated automatically and are frequently updated. Quality checks on data are not normally performed. It is possible for incorrect values to appear. Refer to information at About Latest Weather Observations and please check the disclaimer before using these data.